Time,TemperatureF,DewpointF,PressureIn,WindDirection,WindDirectionDegrees,WindSpeedMPH,WindSpeedGustMPH,Humidity,HourlyPrecipIn,Conditions,Clouds,dailyrainin,SolarRadiationWatts/m^2,SoftwareType,DateUTC
2013-01-08 00:22:00,52.0,51.0,-100.00,WSW,242,7.0,13.0,98,0.00,,,0.00,0.000000,,2013-01-08 10:22:00,
2013-01-08 00:32:00,52.0,51.0,-100.00,WSW,242,7.0,13.0,98,0.00,,,0.00,0.000000,,2013-01-08 10:32:00,
2013-01-08 00:42:00,52.0,51.0,-100.00,WSW,242,7.0,13.0,98,0.00,,,0.00,0.000000,,2013-01-08 10:42:00,
2013-01-08 00:52:00,52.0,51.0,-100.00,WSW,242,7.0,13.0,98,0.00,,,0.00,0.000000,,2013-01-08 10:52:00,
2013-01-08 01:23:00,49.0,-99.9,-100.00,SW,218,2.0,18.0,-999,0.00,,,0.00,0.000000,,2013-01-08 11:23:00,
2013-01-08 01:33:00,49.0,-99.9,-100.00,SW,218,2.0,18.0,-999,0.00,,,0.00,0.000000,,2013-01-08 11:33:00,
2013-01-08 01:43:00,49.0,-99.9,-100.00,SW,218,2.0,18.0,-999,0.00,,,0.00,0.000000,,2013-01-08 11:43:00,
2013-01-08 01:53:00,49.0,-99.9,-100.00,SW,218,2.0,18.0,-999,0.00,,,0.00,0.000000,,2013-01-08 11:53:00,
2013-01-08 02:22:00,47.0,-99.9,-100.00,South,183,7.0,7.0,-999,0.00,,,0.00,0.000000,,2013-01-08 12:22:00,
2013-01-08 02:33:00,47.0,-99.9,-100.00,South,183,7.0,7.0,-999,0.00,,,0.00,0.000000,,2013-01-08 12:33:00,
2013-01-08 02:43:00,47.0,-99.9,-100.00,South,183,7.0,7.0,-999,0.00,,,0.00,0.000000,,2013-01-08 12:43:00,
2013-01-08 02:53:00,47.0,-99.9,-100.00,South,183,7.0,7.0,-999,0.00,,,0.00,0.000000,,2013-01-08 12:53:00,
2013-01-08 03:22:00,42.0,-99.9,-100.00,SSE,168,4.0,13.0,-999,0.00,,,0.00,0.000000,,2013-01-08 13:22:00,
2013-01-08 03:33:00,42.0,-99.9,-100.00,SSE,168,4.0,13.0,-999,0.00,,,0.00,0.000000,,2013-01-08 13:33:00,
2013-01-08 03:43:00,42.0,-99.9,-100.00,SSE,168,4.0,13.0,-999,0.00,,,0.00,0.000000,,2013-01-08 13:43:00,
2013-01-08 03:53:00,42.0,-99.9,-100.00,SSE,168,4.0,13.0,-999,0.00,,,0.00,0.000000,,2013-01-08 13:53:00,
2013-01-08 04:23:00,43.0,-99.9,-100.00,SSE,147,2.0,10.0,-999,0.00,,,0.00,0.000000,,2013-01-08 14:23:00,
2013-01-08 04:33:00,43.0,-99.9,-100.00,SSE,147,2.0,10.0,-999,0.00,,,0.00,0.000000,,2013-01-08 14:33:00,
2013-01-08 04:43:00,43.0,-99.9,-100.00,SSE,147,2.0,10.0,-999,0.00,,,0.00,0.000000,,2013-01-08 14:43:00,
2013-01-08 04:53:00,43.0,-99.9,-100.00,SSE,147,2.0,10.0,-999,0.00,,,0.00,0.000000,,2013-01-08 14:53:00,
2013-01-08 05:23:00,43.0,-99.9,-100.00,East,99,2.0,7.0,-999,0.00,,,0.00,0.000000,,2013-01-08 15:23:00,
2013-01-08 05:33:00,43.0,-99.9,-100.00,East,99,2.0,7.0,-999,0.00,,,0.00,0.000000,,2013-01-08 15:33:00,
2013-01-08 05:43:00,43.0,-99.9,-100.00,East,99,2.0,7.0,-999,0.00,,,0.00,0.000000,,2013-01-08 15:43:00,
2013-01-08 05:53:00,43.0,-99.9,-100.00,East,99,2.0,7.0,-999,0.00,,,0.00,0.000000,,2013-01-08 15:53:00,
2013-01-08 06:23:00,45.0,-99.9,-100.00,SSE,161,3.0,8.0,-999,0.00,,,0.00,0.000000,,2013-01-08 16:23:00,
2013-01-08 06:34:00,45.0,-99.9,-100.00,SSE,161,3.0,8.0,-999,0.00,,,0.00,0.000000,,2013-01-08 16:34:00,
2013-01-08 06:43:00,45.0,-99.9,-100.00,SSE,161,3.0,8.0,-999,0.00,,,0.00,0.000000,,2013-01-08 16:43:00,
2013-01-08 06:53:00,45.0,-99.9,-100.00,SSE,161,3.0,8.0,-999,0.00,,,0.00,0.000000,,2013-01-08 16:53:00,
2013-01-08 08:24:00,52.0,-99.9,-100.00,SSE,158,4.0,16.0,-999,-99.99,,,0.00,,,2013-01-08 18:24:00,
2013-01-08 08:34:00,52.0,-99.9,-100.00,SSE,158,4.0,16.0,-999,-99.99,,,0.00,,,2013-01-08 18:34:00,
2013-01-08 08:43:00,52.0,-99.9,-100.00,SSE,158,4.0,16.0,-999,-99.99,,,0.00,,,2013-01-08 18:43:00,
2013-01-08 08:53:00,52.0,-99.9,-100.00,SSE,158,4.0,16.0,-999,-99.99,,,0.00,,,2013-01-08 18:53:00,
2013-01-08 09:23:00,61.0,-99.9,-100.00,West,279,4.0,10.0,-999,0.00,,,0.00,332.000000,,2013-01-08 19:23:00,
2013-01-08 09:33:00,61.0,-99.9,-100.00,West,279,4.0,10.0,-999,0.00,,,0.00,332.000000,,2013-01-08 19:33:00,
2013-01-08 09:43:00,61.0,-99.9,-100.00,West,279,4.0,10.0,-999,0.00,,,0.00,332.000000,,2013-01-08 19:43:00,
2013-01-08 09:53:00,61.0,-99.9,-100.00,West,279,4.0,10.0,-999,0.00,,,0.00,332.000000,,2013-01-08 19:53:00,
2013-01-08 10:23:00,68.0,-99.9,-100.00,West,278,5.0,10.0,-999,0.00,,,0.00,568.000000,,2013-01-08 20:23:00,
2013-01-08 10:33:00,68.0,-99.9,-100.00,West,278,5.0,10.0,-999,0.00,,,0.00,568.000000,,2013-01-08 20:33:00,
2013-01-08 10:43:00,68.0,-99.9,-100.00,West,278,5.0,10.0,-999,0.00,,,0.00,568.000000,,2013-01-08 20:43:00,
2013-01-08 10:54:00,68.0,-99.9,-100.00,West,278,5.0,10.0,-999,0.00,,,0.00,568.000000,,2013-01-08 20:54:00,
2013-01-08 11:23:00,68.0,-99.9,-100.00,NW,305,11.0,17.0,-999,0.00,,,0.00,746.000000,,2013-01-08 21:23:00,
2013-01-08 11:34:00,68.0,-99.9,-100.00,NW,305,11.0,17.0,-999,0.00,,,0.00,746.000000,,2013-01-08 21:34:00,
2013-01-08 11:43:00,68.0,-99.9,-100.00,NW,305,11.0,17.0,-999,0.00,,,0.00,746.000000,,2013-01-08 21:43:00,
2013-01-08 11:53:00,68.0,-99.9,-100.00,NW,305,11.0,17.0,-999,0.00,,,0.00,746.000000,,2013-01-08 21:53:00,
2013-01-08 12:23:00,68.0,-99.9,-100.00,NNW,343,11.0,23.0,-999,0.00,,,0.00,872.000000,,2013-01-08 22:23:00,
2013-01-08 12:33:00,68.0,-99.9,-100.00,NNW,343,11.0,23.0,-999,0.00,,,0.00,872.000000,,2013-01-08 22:33:00,
2013-01-08 12:43:00,68.0,-99.9,-100.00,NNW,343,11.0,23.0,-999,0.00,,,0.00,872.000000,,2013-01-08 22:43:00,
2013-01-08 12:53:00,68.0,-99.9,-100.00,NNW,343,11.0,23.0,-999,0.00,,,0.00,872.000000,,2013-01-08 22:53:00,
2013-01-08 13:22:00,71.0,58.0,-100.00,South,187,11.0,31.0,63,0.00,,,0.00,923.000000,,2013-01-08 23:22:00,
2013-01-08 13:32:00,71.0,58.0,-100.00,South,187,11.0,31.0,63,0.00,,,0.00,923.000000,,2013-01-08 23:32:00,
2013-01-08 13:42:00,71.0,58.0,-100.00,South,187,11.0,31.0,63,0.00,,,0.00,923.000000,,2013-01-08 23:42:00,
2013-01-08 13:52:00,71.0,58.0,-100.00,South,187,11.0,31.0,63,0.00,,,0.00,923.000000,,2013-01-08 23:52:00,
2013-01-08 14:23:00,70.0,-99.9,-100.00,NW,318,11.0,26.0,-999,0.00,,,0.00,897.000000,,2013-01-09 00:23:00,
2013-01-08 14:33:00,70.0,-99.9,-100.00,NW,318,11.0,26.0,-999,0.00,,,0.00,897.000000,,2013-01-09 00:33:00,
2013-01-08 14:43:00,70.0,-99.9,-100.00,NW,318,11.0,26.0,-999,0.00,,,0.00,897.000000,,2013-01-09 00:43:00,
2013-01-08 14:53:00,70.0,-99.9,-100.00,NW,318,11.0,26.0,-999,0.00,,,0.00,897.000000,,2013-01-09 00:53:00,
2013-01-08 15:22:00,66.0,-99.9,-100.00,NNW,330,13.0,41.0,-999,0.00,,,0.00,780.000000,,2013-01-09 01:22:00,
2013-01-08 15:33:00,66.0,-99.9,-100.00,NNW,330,13.0,41.0,-999,0.00,,,0.00,780.000000,,2013-01-09 01:33:00,
2013-01-08 15:43:00,66.0,-99.9,-100.00,NNW,330,13.0,41.0,-999,0.00,,,0.00,780.000000,,2013-01-09 01:43:00,
2013-01-08 15:53:00,66.0,-99.9,-100.00,NNW,330,13.0,41.0,-999,0.00,,,0.00,780.000000,,2013-01-09 01:53:00,
2013-01-08 16:23:00,66.0,-99.9,-100.00,NNE,27,11.0,26.0,-999,0.00,,,0.00,432.000000,,2013-01-09 02:23:00,
2013-01-08 16:33:00,66.0,-99.9,-100.00,NNE,27,11.0,26.0,-999,0.00,,,0.00,432.000000,,2013-01-09 02:33:00,
2013-01-08 16:43:00,66.0,-99.9,-100.00,NNE,27,11.0,26.0,-999,0.00,,,0.00,432.000000,,2013-01-09 02:43:00,
2013-01-08 16:53:00,66.0,-99.9,-100.00,NNE,27,11.0,26.0,-999,0.00,,,0.00,432.000000,,2013-01-09 02:53:00,
2013-01-08 17:22:00,64.0,-99.9,-100.00,East,83,18.0,32.0,-999,0.00,,,0.00,376.000000,,2013-01-09 03:22:00,
2013-01-08 17:33:00,64.0,-99.9,-100.00,East,83,18.0,32.0,-999,0.00,,,0.00,376.000000,,2013-01-09 03:33:00,
2013-01-08 17:43:00,64.0,-99.9,-100.00,East,83,18.0,32.0,-999,0.00,,,0.00,376.000000,,2013-01-09 03:43:00,
2013-01-08 17:53:00,64.0,-99.9,-100.00,East,83,18.0,32.0,-999,0.00,,,0.00,376.000000,,2013-01-09 03:53:00,
2013-01-08 18:23:00,62.0,-99.9,-100.00,SE,135,15.0,35.0,-999,0.00,,,0.00,125.000000,,2013-01-09 04:23:00,
2013-01-08 18:33:00,62.0,-99.9,-100.00,SE,135,15.0,35.0,-999,0.00,,,0.00,125.000000,,2013-01-09 04:33:00,
2013-01-08 18:43:00,62.0,-99.9,-100.00,SE,135,15.0,35.0,-999,0.00,,,0.00,125.000000,,2013-01-09 04:43:00,
2013-01-08 18:53:00,62.0,-99.9,-100.00,SE,135,15.0,35.0,-999,0.00,,,0.00,125.000000,,2013-01-09 04:53:00,
2013-01-08 19:22:00,56.0,-99.9,-100.00,SSW,212,9.0,29.0,-999,0.00,,,0.00,1.000000,,2013-01-09 05:22:00,
2013-01-08 19:33:00,56.0,-99.9,-100.00,SSW,212,9.0,29.0,-999,0.00,,,0.00,1.000000,,2013-01-09 05:33:00,
2013-01-08 19:43:00,56.0,-99.9,-100.00,SSW,212,9.0,29.0,-999,0.00,,,0.00,1.000000,,2013-01-09 05:43:00,
2013-01-08 19:53:00,56.0,-99.9,-100.00,SSW,212,9.0,29.0,-999,0.00,,,0.00,1.000000,,2013-01-09 05:53:00,
2013-01-08 20:22:00,52.0,-99.9,-100.00,SSW,200,3.0,15.0,-999,0.00,,,0.00,0.000000,,2013-01-09 06:22:00,
2013-01-08 20:32:00,52.0,-99.9,-100.00,SSW,200,3.0,15.0,-999,0.00,,,0.00,0.000000,,2013-01-09 06:32:00,
2013-01-08 20:43:00,52.0,-99.9,-100.00,SSW,200,3.0,15.0,-999,0.00,,,0.00,0.000000,,2013-01-09 06:43:00,
2013-01-08 20:53:00,52.0,-99.9,-100.00,SSW,200,3.0,15.0,-999,0.00,,,0.00,0.000000,,2013-01-09 06:53:00,
2013-01-08 21:22:00,54.0,48.0,-100.00,South,182,8.0,12.0,80,0.00,,,0.00,0.000000,,2013-01-09 07:22:00,
2013-01-08 21:32:00,54.0,48.0,-100.00,South,182,8.0,12.0,80,0.00,,,0.00,0.000000,,2013-01-09 07:32:00,
2013-01-08 21:42:00,54.0,48.0,-100.00,South,182,8.0,12.0,80,0.00,,,0.00,0.000000,,2013-01-09 07:42:00,
2013-01-08 21:52:00,54.0,48.0,-100.00,South,182,8.0,12.0,80,0.00,,,0.00,0.000000,,2013-01-09 07:52:00,
2013-01-08 22:22:00,54.0,-99.9,-100.00,ESE,123,7.0,19.0,-999,0.00,,,0.00,0.000000,,2013-01-09 08:22:00,
2013-01-08 22:33:00,54.0,-99.9,-100.00,ESE,123,7.0,19.0,-999,0.00,,,0.00,0.000000,,2013-01-09 08:33:00,
2013-01-08 22:43:00,54.0,-99.9,-100.00,ESE,123,7.0,19.0,-999,0.00,,,0.00,0.000000,,2013-01-09 08:43:00,
2013-01-08 22:53:00,54.0,-99.9,-100.00,ESE,123,7.0,19.0,-999,0.00,,,0.00,0.000000,,2013-01-09 08:53:00,
2013-01-08 23:22:00,51.0,-99.9,-100.00,East,89,3.0,16.0,-999,0.00,,,0.00,0.000000,,2013-01-09 09:22:00,
2013-01-08 23:32:00,51.0,-99.9,-100.00,East,89,3.0,16.0,-999,0.00,,,0.00,0.000000,,2013-01-09 09:32:00,
2013-01-08 23:42:00,51.0,-99.9,-100.00,East,89,3.0,16.0,-999,0.00,,,0.00,0.000000,,2013-01-09 09:42:00,
2013-01-08 23:54:00,51.0,-99.9,-100.00,East,89,3.0,16.0,-999,0.00,,,0.00,0.000000,,2013-01-09 09:54:00,